Jyllinge, Denmark
Current Conditions -  °F | °C
As of 6:20 AM on Friday 28 Nov 2014 (Local Time) from EKRK Reporting Station
Broken Clouds Broken Clouds  
Wind Chill: 32°   Ceiling: 4100
Heat Index: 41°   Visibility: 6mi
Dew Point: 34°   Wind: 17mph
Humidity: 76%   Direction: 120°ESE
Pressure: 30.18"   Gusts: NA
Location:  55.76°N, 12.11°E
Report Text: EKRK 280520Z AUTO 12015KT 9999NDV FEW025/// BKN041///05/01 Q1022
Loading
Personal Weather Stations






























Interactive Weather Map New forecast layout! Learn more

10-Day Weather Forecast

Advertisements
Track Severe Weather on mobile